Detailed System and Site Information

System Data Health
Measure Timestamp Ago Health
Web Server Live 02:24:38, 24th August 2016 0 s health
Last live-data upload from local system (nw3) 02:24:36, 24th August 2016 2 s health
Last upload of secondary data 02:00:22, 24th August 2016 24 mins health
Latest Webcam upload 02:24:08, 24th August 2016 30 s health
Last upload of 24hr data log 02:24:08, 24th August 2016 30 s health
Last full data process 02:20:08, 24th August 2016 5 mins health
Last data downtime (>15 mins) 03:31:04, 8th July 2016 47 days
Local System and Site Information
Measure Value
WD Version & Build # 10.37R - 40
WD Start Time 23:14 14/08/16
WD Data Count 274263
WD Memory Use 74,928 K
--- ---
Windows Uptime 9 Days 2 Hours 46 Minutes 30 Seconds
Free System Memory 2882 MB (Max: 4GB)
--- ---
Station Altitude 57 m (187 ft)
Station Latitude 51.556
Station Longitude -0.154
Machine Room Conditions
Measure Value
Temperature 26.8 °C
Temperature Trend -0.6 °C /hr
Relative Humidity 40%
Dew Point 12.1 °C
--- ---
Tmin Today 26.8 °C at 01:59
Tmax Today 27.7 °C at 00:00
Hmin Today 39% at 00:00
Hmax Today 40% at 00:21
Tmin Yesterday 23.3 °C at 06:36
Tmax Yesterday 29.7 °C at 17:53

Site owner and administrator: Ben Lee-Rodgers (2010 - present)

Last 10hrs Temp/Hum for Secondary Sensor and Indoors

Extra Sensors/Indoor

Other

Raw METAR from EGLL (Heathrow)

EGLL 231420Z AUTO 14013KT 9999 NCD 30/13 Q1021 NOSIG
Decode Instructions
Source

WD Screenshot

not available